sensor_id;sensor_type;location;lat;lon;timestamp;P1;durP1;ratioP1;P2;durP2;ratioP2
28170;SDS011;15458;53.346;-1.688;2022-10-22T00:01:29;5.18;;;1.30;;
28170;SDS011;15458;53.346;-1.688;2022-10-22T00:03:55;4.97;;;1.30;;
28170;SDS011;15458;53.346;-1.688;2022-10-22T00:06:21;10.30;;;1.50;;
28170;SDS011;15458;53.346;-1.688;2022-10-22T00:08:46;3.35;;;1.40;;
28170;SDS011;15458;53.346;-1.688;2022-10-22T00:11:13;7.15;;;1.60;;
28170;SDS011;15458;53.346;-1.688;2022-10-22T00:13:40;6.05;;;1.67;;
28170;SDS011;15458;53.346;-1.688;2022-10-22T00:16:07;4.40;;;1.67;;
28170;SDS011;15458;53.346;-1.688;2022-10-22T00:18:33;5.60;;;1.95;;
28170;SDS011;15458;53.346;-1.688;2022-10-22T00:20:59;8.23;;;1.48;;
28170;SDS011;15458;53.346;-1.688;2022-10-22T00:23:25;8.32;;;1.63;;
28170;SDS011;15458;53.346;-1.688;2022-10-22T00:25:54;8.35;;;1.45;;
28170;SDS011;15458;53.346;-1.688;2022-10-22T00:28:20;9.48;;;2.08;;
28170;SDS011;15458;53.346;-1.688;2022-10-22T00:30:47;3.42;;;1.40;;
28170;SDS011;15458;53.346;-1.688;2022-10-22T00:33:12;6.28;;;1.40;;
28170;SDS011;15458;53.346;-1.688;2022-10-22T00:35:38;7.90;;;1.13;;
28170;SDS011;15458;53.346;-1.688;2022-10-22T00:38:04;10.15;;;1.35;;
28170;SDS011;15458;53.346;-1.688;2022-10-22T00:40:30;10.02;;;1.58;;
28170;SDS011;15458;53.346;-1.688;2022-10-22T00:42:55;7.25;;;1.90;;
28170;SDS011;15458;53.346;-1.688;2022-10-22T00:45:22;9.98;;;1.40;;
28170;SDS011;15458;53.346;-1.688;2022-10-22T00:50:52;5.75;;;1.13;;
28170;SDS011;15458;53.346;-1.688;2022-10-22T00:53:31;5.40;;;1.10;;
28170;SDS011;15458;53.346;-1.688;2022-10-22T00:56:23;8.48;;;1.58;;
28170;SDS011;15458;53.346;-1.688;2022-10-22T00:58:51;7.18;;;1.20;;
28170;SDS011;15458;53.346;-1.688;2022-10-22T01:01:20;9.10;;;1.30;;
28170;SDS011;15458;53.346;-1.688;2022-10-22T01:03:49;3.55;;;1.13;;
28170;SDS011;15458;53.346;-1.688;2022-10-22T01:06:19;10.07;;;1.50;;
28170;SDS011;15458;53.346;-1.688;2022-10-22T01:09:02;6.95;;;1.38;;
28170;SDS011;15458;53.346;-1.688;2022-10-22T01:14:08;7.63;;;1.45;;
28170;SDS011;15458;53.346;-1.688;2022-10-22T01:17:17;7.78;;;1.67;;
28170;SDS011;15458;53.346;-1.688;2022-10-22T01:20:22;4.55;;;1.70;;
28170;SDS011;15458;53.346;-1.688;2022-10-22T01:23:09;6.60;;;1.50;;
28170;SDS011;15458;53.346;-1.688;2022-10-22T01:26:05;5.72;;;1.30;;
28170;SDS011;15458;53.346;-1.688;2022-10-22T01:29:06;3.97;;;1.52;;
28170;SDS011;15458;53.346;-1.688;2022-10-22T01:31:37;8.93;;;1.67;;
28170;SDS011;15458;53.346;-1.688;2022-10-22T01:34:08;4.68;;;1.20;;
28170;SDS011;15458;53.346;-1.688;2022-10-22T01:36:37;2.72;;;1.20;;
28170;SDS011;15458;53.346;-1.688;2022-10-22T01:39:03;3.45;;;1.05;;
28170;SDS011;15458;53.346;-1.688;2022-10-22T01:41:30;4.95;;;1.40;;
28170;SDS011;15458;53.346;-1.688;2022-10-22T01:43:59;7.47;;;1.20;;
28170;SDS011;15458;53.346;-1.688;2022-10-22T01:46:26;6.07;;;1.30;;
28170;SDS011;15458;53.346;-1.688;2022-10-22T01:54:13;5.32;;;1.52;;
28170;SDS011;15458;53.346;-1.688;2022-10-22T02:07:46;4.20;;;1.15;;
28170;SDS011;15458;53.346;-1.688;2022-10-22T02:10:25;1.70;;;0.85;;
28170;SDS011;15458;53.346;-1.688;2022-10-22T02:12:55;2.13;;;0.98;;
28170;SDS011;15458;53.346;-1.688;2022-10-22T02:15:22;1.90;;;1.00;;
28170;SDS011;15458;53.346;-1.688;2022-10-22T02:17:50;2.92;;;0.70;;
28170;SDS011;15458;53.346;-1.688;2022-10-22T02:20:22;3.35;;;1.30;;
28170;SDS011;15458;53.346;-1.688;2022-10-22T02:22:54;2.67;;;0.70;;
28170;SDS011;15458;53.346;-1.688;2022-10-22T02:25:20;4.82;;;0.80;;
28170;SDS011;15458;53.346;-1.688;2022-10-22T02:27:52;4.13;;;0.70;;
28170;SDS011;15458;53.346;-1.688;2022-10-22T02:30:29;2.33;;;0.82;;
28170;SDS011;15458;53.346;-1.688;2022-10-22T02:32:59;6.75;;;1.15;;
28170;SDS011;15458;53.346;-1.688;2022-10-22T02:35:33;5.78;;;0.98;;
28170;SDS011;15458;53.346;-1.688;2022-10-22T02:38:00;5.13;;;1.20;;
28170;SDS011;15458;53.346;-1.688;2022-10-22T02:40:27;5.43;;;1.27;;
28170;SDS011;15458;53.346;-1.688;2022-10-22T02:42:57;6.63;;;1.13;;
28170;SDS011;15458;53.346;-1.688;2022-10-22T02:45:23;3.30;;;1.20;;
28170;SDS011;15458;53.346;-1.688;2022-10-22T02:47:49;2.53;;;1.23;;
28170;SDS011;15458;53.346;-1.688;2022-10-22T02:50:15;5.43;;;1.10;;
28170;SDS011;15458;53.346;-1.688;2022-10-22T02:52:41;5.15;;;1.20;;
28170;SDS011;15458;53.346;-1.688;2022-10-22T02:55:09;5.10;;;1.10;;
28170;SDS011;15458;53.346;-1.688;2022-10-22T02:57:35;4.13;;;1.00;;
28170;SDS011;15458;53.346;-1.688;2022-10-22T03:00:05;5.60;;;1.63;;
28170;SDS011;15458;53.346;-1.688;2022-10-22T03:02:31;2.97;;;0.85;;
28170;SDS011;15458;53.346;-1.688;2022-10-22T03:04:57;3.65;;;0.93;;
28170;SDS011;15458;53.346;-1.688;2022-10-22T03:07:23;2.55;;;0.93;;
28170;SDS011;15458;53.346;-1.688;2022-10-22T03:09:48;3.70;;;0.80;;
28170;SDS011;15458;53.346;-1.688;2022-10-22T03:12:14;1.02;;;0.57;;
28170;SDS011;15458;53.346;-1.688;2022-10-22T03:14:40;7.38;;;0.77;;
28170;SDS011;15458;53.346;-1.688;2022-10-22T03:17:06;7.57;;;1.02;;
28170;SDS011;15458;53.346;-1.688;2022-10-22T03:19:31;5.30;;;1.00;;
28170;SDS011;15458;53.346;-1.688;2022-10-22T03:22:01;6.45;;;1.20;;
28170;SDS011;15458;53.346;-1.688;2022-10-22T03:24:38;2.10;;;0.98;;
28170;SDS011;15458;53.346;-1.688;2022-10-22T03:27:06;3.03;;;1.63;;
28170;SDS011;15458;53.346;-1.688;2022-10-22T03:29:33;5.78;;;1.40;;
28170;SDS011;15458;53.346;-1.688;2022-10-22T03:32:01;4.95;;;1.10;;
28170;SDS011;15458;53.346;-1.688;2022-10-22T03:34:27;4.45;;;1.17;;
28170;SDS011;15458;53.346;-1.688;2022-10-22T03:36:57;5.97;;;1.63;;
28170;SDS011;15458;53.346;-1.688;2022-10-22T03:39:26;6.78;;;1.42;;
28170;SDS011;15458;53.346;-1.688;2022-10-22T03:41:55;4.30;;;1.10;;
28170;SDS011;15458;53.346;-1.688;2022-10-22T03:44:24;5.63;;;1.13;;
28170;SDS011;15458;53.346;-1.688;2022-10-22T03:46:50;5.93;;;1.83;;
28170;SDS011;15458;53.346;-1.688;2022-10-22T03:49:18;7.95;;;1.60;;
28170;SDS011;15458;53.346;-1.688;2022-10-22T03:51:44;10.75;;;1.70;;
28170;SDS011;15458;53.346;-1.688;2022-10-22T03:54:09;3.55;;;1.10;;
28170;SDS011;15458;53.346;-1.688;2022-10-22T03:56:35;18.10;;;2.08;;
28170;SDS011;15458;53.346;-1.688;2022-10-22T03:59:01;5.43;;;1.45;;
28170;SDS011;15458;53.346;-1.688;2022-10-22T04:01:27;4.72;;;1.02;;
28170;SDS011;15458;53.346;-1.688;2022-10-22T04:03:54;8.70;;;1.40;;
28170;SDS011;15458;53.346;-1.688;2022-10-22T04:06:23;8.45;;;2.45;;
28170;SDS011;15458;53.346;-1.688;2022-10-22T04:08:51;3.50;;;1.00;;
28170;SDS011;15458;53.346;-1.688;2022-10-22T04:11:17;3.28;;;1.45;;
28170;SDS011;15458;53.346;-1.688;2022-10-22T04:13:44;0.70;;;0.50;;
28170;SDS011;15458;53.346;-1.688;2022-10-22T04:16:10;5.25;;;0.80;;
28170;SDS011;15458;53.346;-1.688;2022-10-22T04:18:42;4.65;;;0.75;;
28170;SDS011;15458;53.346;-1.688;2022-10-22T04:21:09;4.45;;;1.23;;
28170;SDS011;15458;53.346;-1.688;2022-10-22T04:23:37;3.65;;;0.70;;
28170;SDS011;15458;53.346;-1.688;2022-10-22T04:26:04;2.15;;;0.57;;
28170;SDS011;15458;53.346;-1.688;2022-10-22T04:28:31;3.78;;;0.60;;
28170;SDS011;15458;53.346;-1.688;2022-10-22T04:31:06;2.75;;;0.57;;
28170;SDS011;15458;53.346;-1.688;2022-10-22T04:33:34;3.72;;;0.68;;
28170;SDS011;15458;53.346;-1.688;2022-10-22T04:35:59;5.07;;;1.15;;
28170;SDS011;15458;53.346;-1.688;2022-10-22T04:38:29;4.95;;;0.85;;
28170;SDS011;15458;53.346;-1.688;2022-10-22T04:40:56;6.97;;;1.02;;
28170;SDS011;15458;53.346;-1.688;2022-10-22T04:43:22;6.88;;;1.20;;
28170;SDS011;15458;53.346;-1.688;2022-10-22T04:45:47;11.18;;;1.00;;
28170;SDS011;15458;53.346;-1.688;2022-10-22T04:48:13;8.35;;;1.20;;
28170;SDS011;15458;53.346;-1.688;2022-10-22T04:50:39;9.38;;;1.70;;
28170;SDS011;15458;53.346;-1.688;2022-10-22T04:53:04;7.57;;;1.10;;
28170;SDS011;15458;53.346;-1.688;2022-10-22T04:55:30;11.18;;;1.48;;
28170;SDS011;15458;53.346;-1.688;2022-10-22T04:57:56;6.32;;;1.90;;
28170;SDS011;15458;53.346;-1.688;2022-10-22T05:00:22;6.38;;;0.77;;
28170;SDS011;15458;53.346;-1.688;2022-10-22T05:02:48;7.50;;;1.23;;
28170;SDS011;15458;53.346;-1.688;2022-10-22T05:05:16;7.70;;;1.20;;
28170;SDS011;15458;53.346;-1.688;2022-10-22T05:07:41;10.23;;;0.90;;
28170;SDS011;15458;53.346;-1.688;2022-10-22T05:10:09;5.88;;;1.25;;
28170;SDS011;15458;53.346;-1.688;2022-10-22T05:12:34;7.80;;;1.02;;
28170;SDS011;15458;53.346;-1.688;2022-10-22T05:15:00;4.15;;;0.85;;
28170;SDS011;15458;53.346;-1.688;2022-10-22T05:17:26;5.25;;;1.00;;
28170;SDS011;15458;53.346;-1.688;2022-10-22T05:19:51;6.63;;;1.20;;
28170;SDS011;15458;53.346;-1.688;2022-10-22T05:22:17;10.90;;;1.10;;
28170;SDS011;15458;53.346;-1.688;2022-10-22T05:24:43;14.15;;;1.58;;
28170;SDS011;15458;53.346;-1.688;2022-10-22T05:27:09;8.15;;;1.33;;
28170;SDS011;15458;53.346;-1.688;2022-10-22T05:29:34;9.50;;;1.33;;
28170;SDS011;15458;53.346;-1.688;2022-10-22T05:32:02;5.38;;;1.15;;
28170;SDS011;15458;53.346;-1.688;2022-10-22T05:34:28;13.60;;;1.33;;
28170;SDS011;15458;53.346;-1.688;2022-10-22T05:36:53;10.95;;;1.15;;
28170;SDS011;15458;53.346;-1.688;2022-10-22T05:39:20;11.27;;;1.92;;
28170;SDS011;15458;53.346;-1.688;2022-10-22T05:41:46;8.68;;;1.15;;
28170;SDS011;15458;53.346;-1.688;2022-10-22T05:44:12;14.25;;;2.65;;
28170;SDS011;15458;53.346;-1.688;2022-10-22T05:46:38;11.45;;;1.38;;
28170;SDS011;15458;53.346;-1.688;2022-10-22T05:49:05;9.95;;;1.17;;
28170;SDS011;15458;53.346;-1.688;2022-10-22T05:51:32;8.32;;;2.05;;
28170;SDS011;15458;53.346;-1.688;2022-10-22T05:54:00;8.60;;;1.60;;
28170;SDS011;15458;53.346;-1.688;2022-10-22T05:56:27;13.40;;;1.83;;
28170;SDS011;15458;53.346;-1.688;2022-10-22T05:58:54;11.05;;;1.65;;
28170;SDS011;15458;53.346;-1.688;2022-10-22T06:01:22;11.27;;;1.67;;
28170;SDS011;15458;53.346;-1.688;2022-10-22T06:03:52;15.98;;;1.73;;
28170;SDS011;15458;53.346;-1.688;2022-10-22T06:08:48;13.23;;;1.40;;
28170;SDS011;15458;53.346;-1.688;2022-10-22T06:11:16;15.50;;;1.95;;
28170;SDS011;15458;53.346;-1.688;2022-10-22T06:13:44;17.40;;;1.50;;
28170;SDS011;15458;53.346;-1.688;2022-10-22T06:16:12;13.52;;;1.73;;
28170;SDS011;15458;53.346;-1.688;2022-10-22T06:18:38;14.55;;;2.38;;
28170;SDS011;15458;53.346;-1.688;2022-10-22T06:21:08;11.07;;;1.20;;
28170;SDS011;15458;53.346;-1.688;2022-10-22T06:23:35;11.00;;;1.05;;
28170;SDS011;15458;53.346;-1.688;2022-10-22T06:26:03;15.75;;;1.65;;
28170;SDS011;15458;53.346;-1.688;2022-10-22T06:28:33;10.80;;;1.48;;
28170;SDS011;15458;53.346;-1.688;2022-10-22T06:30:59;12.43;;;1.48;;
28170;SDS011;15458;53.346;-1.688;2022-10-22T06:33:28;11.48;;;1.42;;
28170;SDS011;15458;53.346;-1.688;2022-10-22T06:36:04;10.13;;;1.05;;
28170;SDS011;15458;53.346;-1.688;2022-10-22T06:38:31;8.75;;;1.40;;
28170;SDS011;15458;53.346;-1.688;2022-10-22T06:41:16;7.20;;;1.73;;
28170;SDS011;15458;53.346;-1.688;2022-10-22T06:43:45;6.35;;;1.30;;
28170;SDS011;15458;53.346;-1.688;2022-10-22T06:46:12;18.90;;;1.98;;
28170;SDS011;15458;53.346;-1.688;2022-10-22T06:48:41;13.77;;;2.40;;
28170;SDS011;15458;53.346;-1.688;2022-10-22T06:51:11;10.77;;;1.70;;
28170;SDS011;15458;53.346;-1.688;2022-10-22T06:53:37;15.95;;;2.00;;
28170;SDS011;15458;53.346;-1.688;2022-10-22T06:56:06;18.17;;;2.13;;
28170;SDS011;15458;53.346;-1.688;2022-10-22T06:58:34;12.18;;;2.92;;
28170;SDS011;15458;53.346;-1.688;2022-10-22T07:01:04;7.07;;;1.65;;
28170;SDS011;15458;53.346;-1.688;2022-10-22T07:03:36;7.32;;;1.52;;
28170;SDS011;15458;53.346;-1.688;2022-10-22T07:06:13;11.13;;;2.55;;
28170;SDS011;15458;53.346;-1.688;2022-10-22T07:08:41;10.43;;;1.55;;
28170;SDS011;15458;53.346;-1.688;2022-10-22T07:13:42;8.35;;;1.50;;
28170;SDS011;15458;53.346;-1.688;2022-10-22T07:35:12;11.98;;;1.67;;
28170;SDS011;15458;53.346;-1.688;2022-10-22T07:37:38;12.63;;;1.73;;
28170;SDS011;15458;53.346;-1.688;2022-10-22T07:40:05;11.80;;;1.70;;
28170;SDS011;15458;53.346;-1.688;2022-10-22T07:42:31;18.40;;;2.85;;
28170;SDS011;15458;53.346;-1.688;2022-10-22T07:44:57;15.23;;;1.73;;
28170;SDS011;15458;53.346;-1.688;2022-10-22T07:47:26;12.70;;;2.25;;
28170;SDS011;15458;53.346;-1.688;2022-10-22T07:49:55;10.70;;;2.00;;
28170;SDS011;15458;53.346;-1.688;2022-10-22T07:52:22;9.50;;;1.58;;
28170;SDS011;15458;53.346;-1.688;2022-10-22T07:54:47;12.50;;;1.42;;
28170;SDS011;15458;53.346;-1.688;2022-10-22T07:57:13;16.27;;;1.90;;
28170;SDS011;15458;53.346;-1.688;2022-10-22T07:59:39;22.83;;;2.00;;
28170;SDS011;15458;53.346;-1.688;2022-10-22T08:02:04;17.38;;;1.85;;
28170;SDS011;15458;53.346;-1.688;2022-10-22T08:04:30;16.00;;;1.70;;
28170;SDS011;15458;53.346;-1.688;2022-10-22T08:06:56;13.27;;;1.55;;
28170;SDS011;15458;53.346;-1.688;2022-10-22T08:09:22;12.77;;;2.53;;
28170;SDS011;15458;53.346;-1.688;2022-10-22T08:11:49;12.23;;;1.80;;
28170;SDS011;15458;53.346;-1.688;2022-10-22T08:14:15;15.27;;;1.85;;
28170;SDS011;15458;53.346;-1.688;2022-10-22T08:16:40;15.50;;;1.88;;
28170;SDS011;15458;53.346;-1.688;2022-10-22T08:19:06;11.63;;;1.75;;
28170;SDS011;15458;53.346;-1.688;2022-10-22T08:21:32;14.60;;;2.00;;
28170;SDS011;15458;53.346;-1.688;2022-10-22T08:23:58;17.27;;;1.90;;
28170;SDS011;15458;53.346;-1.688;2022-10-22T08:26:23;8.52;;;1.58;;
28170;SDS011;15458;53.346;-1.688;2022-10-22T08:28:49;13.27;;;2.10;;
28170;SDS011;15458;53.346;-1.688;2022-10-22T08:31:15;18.30;;;2.58;;
28170;SDS011;15458;53.346;-1.688;2022-10-22T08:33:41;15.10;;;1.60;;
28170;SDS011;15458;53.346;-1.688;2022-10-22T08:36:07;15.20;;;2.45;;
28170;SDS011;15458;53.346;-1.688;2022-10-22T08:38:33;18.13;;;2.60;;
28170;SDS011;15458;53.346;-1.688;2022-10-22T08:41:02;13.07;;;2.00;;
28170;SDS011;15458;53.346;-1.688;2022-10-22T08:43:53;12.88;;;1.88;;
28170;SDS011;15458;53.346;-1.688;2022-10-22T08:49:10;12.90;;;1.45;;
28170;SDS011;15458;53.346;-1.688;2022-10-22T08:51:42;10.35;;;1.83;;
28170;SDS011;15458;53.346;-1.688;2022-10-22T09:08:28;10.35;;;1.77;;
28170;SDS011;15458;53.346;-1.688;2022-10-22T09:11:21;15.23;;;1.95;;
28170;SDS011;15458;53.346;-1.688;2022-10-22T09:13:48;13.60;;;1.48;;
28170;SDS011;15458;53.346;-1.688;2022-10-22T09:27:41;13.05;;;2.25;;
28170;SDS011;15458;53.346;-1.688;2022-10-22T09:30:17;14.32;;;2.47;;
28170;SDS011;15458;53.346;-1.688;2022-10-22T09:32:44;18.42;;;2.00;;
28170;SDS011;15458;53.346;-1.688;2022-10-22T09:35:11;14.95;;;1.80;;
28170;SDS011;15458;53.346;-1.688;2022-10-22T09:37:48;16.23;;;1.75;;
28170;SDS011;15458;53.346;-1.688;2022-10-22T09:40:16;17.60;;;2.03;;
28170;SDS011;15458;53.346;-1.688;2022-10-22T09:42:42;15.85;;;2.10;;
28170;SDS011;15458;53.346;-1.688;2022-10-22T09:47:49;16.20;;;2.15;;
28170;SDS011;15458;53.346;-1.688;2022-10-22T09:50:48;20.00;;;2.08;;
28170;SDS011;15458;53.346;-1.688;2022-10-22T09:55:55;9.63;;;1.77;;
28170;SDS011;15458;53.346;-1.688;2022-10-22T09:58:22;15.63;;;1.92;;
28170;SDS011;15458;53.346;-1.688;2022-10-22T10:00:56;17.08;;;2.65;;
28170;SDS011;15458;53.346;-1.688;2022-10-22T10:03:25;15.63;;;2.22;;
28170;SDS011;15458;53.346;-1.688;2022-10-22T10:05:54;26.70;;;2.42;;
28170;SDS011;15458;53.346;-1.688;2022-10-22T10:08:23;10.02;;;1.50;;
28170;SDS011;15458;53.346;-1.688;2022-10-22T10:11:10;10.73;;;2.20;;
28170;SDS011;15458;53.346;-1.688;2022-10-22T10:19:10;9.98;;;1.70;;
28170;SDS011;15458;53.346;-1.688;2022-10-22T10:22:04;13.15;;;2.03;;
28170;SDS011;15458;53.346;-1.688;2022-10-22T10:25:01;13.88;;;1.70;;
28170;SDS011;15458;53.346;-1.688;2022-10-22T10:27:52;9.05;;;1.50;;
28170;SDS011;15458;53.346;-1.688;2022-10-22T10:30:25;10.68;;;2.17;;
28170;SDS011;15458;53.346;-1.688;2022-10-22T10:33:04;12.10;;;1.63;;
28170;SDS011;15458;53.346;-1.688;2022-10-22T10:35:53;10.38;;;1.65;;
28170;SDS011;15458;53.346;-1.688;2022-10-22T10:38:37;10.57;;;1.33;;
28170;SDS011;15458;53.346;-1.688;2022-10-22T10:49:41;16.70;;;1.50;;
28170;SDS011;15458;53.346;-1.688;2022-10-22T10:52:11;16.17;;;1.77;;
28170;SDS011;15458;53.346;-1.688;2022-10-22T11:00:52;13.85;;;2.03;;
28170;SDS011;15458;53.346;-1.688;2022-10-22T11:06:29;7.77;;;1.57;;
28170;SDS011;15458;53.346;-1.688;2022-10-22T11:09:04;6.30;;;1.42;;
28170;SDS011;15458;53.346;-1.688;2022-10-22T11:11:54;5.43;;;1.20;;
28170;SDS011;15458;53.346;-1.688;2022-10-22T11:14:34;6.57;;;1.25;;
28170;SDS011;15458;53.346;-1.688;2022-10-22T11:17:15;8.65;;;1.13;;
28170;SDS011;15458;53.346;-1.688;2022-10-22T11:19:51;5.97;;;1.30;;
28170;SDS011;15458;53.346;-1.688;2022-10-22T11:22:40;6.65;;;1.38;;
28170;SDS011;15458;53.346;-1.688;2022-10-22T11:25:19;10.60;;;1.50;;
28170;SDS011;15458;53.346;-1.688;2022-10-22T11:28:31;5.33;;;1.00;;
28170;SDS011;15458;53.346;-1.688;2022-10-22T11:30:41;10.00;;;1.42;;
28170;SDS011;15458;53.346;-1.688;2022-10-22T11:33:18;5.47;;;1.63;;
28170;SDS011;15458;53.346;-1.688;2022-10-22T11:35:48;6.95;;;1.15;;
28170;SDS011;15458;53.346;-1.688;2022-10-22T11:38:17;8.38;;;1.50;;
28170;SDS011;15458;53.346;-1.688;2022-10-22T11:41:02;6.28;;;1.45;;
28170;SDS011;15458;53.346;-1.688;2022-10-22T11:47:02;9.90;;;1.40;;
28170;SDS011;15458;53.346;-1.688;2022-10-22T11:49:45;10.68;;;1.58;;
28170;SDS011;15458;53.346;-1.688;2022-10-22T11:55:01;6.88;;;1.83;;
28170;SDS011;15458;53.346;-1.688;2022-10-22T11:57:30;11.82;;;1.40;;
28170;SDS011;15458;53.346;-1.688;2022-10-22T12:08:29;12.50;;;1.50;;
28170;SDS011;15458;53.346;-1.688;2022-10-22T12:11:34;7.97;;;1.40;;
28170;SDS011;15458;53.346;-1.688;2022-10-22T12:16:52;13.88;;;2.40;;
28170;SDS011;15458;53.346;-1.688;2022-10-22T12:19:34;14.05;;;1.40;;
28170;SDS011;15458;53.346;-1.688;2022-10-22T12:24:35;10.50;;;1.80;;
28170;SDS011;15458;53.346;-1.688;2022-10-22T12:27:15;8.57;;;1.38;;
28170;SDS011;15458;53.346;-1.688;2022-10-22T12:29:45;7.25;;;1.40;;
28170;SDS011;15458;53.346;-1.688;2022-10-22T12:32:12;6.30;;;1.60;;
28170;SDS011;15458;53.346;-1.688;2022-10-22T12:34:47;11.63;;;2.10;;
28170;SDS011;15458;53.346;-1.688;2022-10-22T12:37:20;10.23;;;1.55;;
28170;SDS011;15458;53.346;-1.688;2022-10-22T12:39:45;9.27;;;1.70;;
28170;SDS011;15458;53.346;-1.688;2022-10-22T12:42:12;10.77;;;1.40;;
28170;SDS011;15458;53.346;-1.688;2022-10-22T12:44:42;10.93;;;2.55;;
28170;SDS011;15458;53.346;-1.688;2022-10-22T12:47:15;6.13;;;1.17;;
28170;SDS011;15458;53.346;-1.688;2022-10-22T12:49:47;8.85;;;1.55;;
28170;SDS011;15458;53.346;-1.688;2022-10-22T12:52:18;6.88;;;1.27;;
28170;SDS011;15458;53.346;-1.688;2022-10-22T12:54:46;7.07;;;1.50;;
28170;SDS011;15458;53.346;-1.688;2022-10-22T12:57:16;12.48;;;1.73;;
28170;SDS011;15458;53.346;-1.688;2022-10-22T12:59:45;9.95;;;1.30;;
28170;SDS011;15458;53.346;-1.688;2022-10-22T13:02:21;9.13;;;1.63;;
28170;SDS011;15458;53.346;-1.688;2022-10-22T13:07:49;12.00;;;1.45;;
28170;SDS011;15458;53.346;-1.688;2022-10-22T13:10:25;12.05;;;1.60;;
28170;SDS011;15458;53.346;-1.688;2022-10-22T13:12:56;16.27;;;2.15;;
28170;SDS011;15458;53.346;-1.688;2022-10-22T13:18:01;10.88;;;2.03;;
28170;SDS011;15458;53.346;-1.688;2022-10-22T13:20:48;7.10;;;1.33;;
28170;SDS011;15458;53.346;-1.688;2022-10-22T13:23:23;7.82;;;1.50;;
28170;SDS011;15458;53.346;-1.688;2022-10-22T13:25:55;8.77;;;1.75;;
28170;SDS011;15458;53.346;-1.688;2022-10-22T13:28:23;10.02;;;1.40;;
28170;SDS011;15458;53.346;-1.688;2022-10-22T13:30:57;10.75;;;1.60;;
28170;SDS011;15458;53.346;-1.688;2022-10-22T13:36:22;7.13;;;1.55;;
28170;SDS011;15458;53.346;-1.688;2022-10-22T13:38:48;13.02;;;2.00;;
28170;SDS011;15458;53.346;-1.688;2022-10-22T13:43:43;9.25;;;1.67;;
28170;SDS011;15458;53.346;-1.688;2022-10-22T13:46:08;7.43;;;1.83;;
28170;SDS011;15458;53.346;-1.688;2022-10-22T13:48:35;8.23;;;1.23;;
28170;SDS011;15458;53.346;-1.688;2022-10-22T13:51:09;10.05;;;1.88;;
28170;SDS011;15458;53.346;-1.688;2022-10-22T13:53:39;10.98;;;1.42;;
28170;SDS011;15458;53.346;-1.688;2022-10-22T13:56:05;10.95;;;1.63;;
28170;SDS011;15458;53.346;-1.688;2022-10-22T13:58:30;5.10;;;1.00;;
28170;SDS011;15458;53.346;-1.688;2022-10-22T14:00:56;9.77;;;1.60;;
28170;SDS011;15458;53.346;-1.688;2022-10-22T14:05:55;8.30;;;1.52;;
28170;SDS011;15458;53.346;-1.688;2022-10-22T14:08:22;9.77;;;1.88;;
28170;SDS011;15458;53.346;-1.688;2022-10-22T14:10:49;6.03;;;1.70;;
28170;SDS011;15458;53.346;-1.688;2022-10-22T14:13:19;7.97;;;1.70;;
28170;SDS011;15458;53.346;-1.688;2022-10-22T14:15:45;9.55;;;1.88;;
28170;SDS011;15458;53.346;-1.688;2022-10-22T14:18:14;11.02;;;1.73;;
28170;SDS011;15458;53.346;-1.688;2022-10-22T14:20:48;7.30;;;1.75;;
28170;SDS011;15458;53.346;-1.688;2022-10-22T14:23:18;9.47;;;2.53;;
28170;SDS011;15458;53.346;-1.688;2022-10-22T14:25:45;8.23;;;1.95;;
28170;SDS011;15458;53.346;-1.688;2022-10-22T14:28:11;7.50;;;1.55;;
28170;SDS011;15458;53.346;-1.688;2022-10-22T14:30:38;6.22;;;1.40;;
28170;SDS011;15458;53.346;-1.688;2022-10-22T14:33:24;7.20;;;2.08;;
28170;SDS011;15458;53.346;-1.688;2022-10-22T14:35:56;8.10;;;1.63;;
28170;SDS011;15458;53.346;-1.688;2022-10-22T14:38:23;5.53;;;1.67;;
28170;SDS011;15458;53.346;-1.688;2022-10-22T14:40:51;7.88;;;2.20;;
28170;SDS011;15458;53.346;-1.688;2022-10-22T14:43:27;6.80;;;1.98;;
28170;SDS011;15458;53.346;-1.688;2022-10-22T14:45:55;10.98;;;2.05;;
28170;SDS011;15458;53.346;-1.688;2022-10-22T14:48:22;9.30;;;1.50;;
28170;SDS011;15458;53.346;-1.688;2022-10-22T14:50:48;5.20;;;1.95;;
28170;SDS011;15458;53.346;-1.688;2022-10-22T14:53:15;7.60;;;1.35;;
28170;SDS011;15458;53.346;-1.688;2022-10-22T14:55:42;7.93;;;1.52;;
28170;SDS011;15458;53.346;-1.688;2022-10-22T14:58:11;6.15;;;1.38;;
28170;SDS011;15458;53.346;-1.688;2022-10-22T15:00:39;6.40;;;1.35;;
28170;SDS011;15458;53.346;-1.688;2022-10-22T15:03:05;6.60;;;1.35;;
28170;SDS011;15458;53.346;-1.688;2022-10-22T15:05:31;8.57;;;2.20;;
28170;SDS011;15458;53.346;-1.688;2022-10-22T15:07:56;4.93;;;1.38;;
28170;SDS011;15458;53.346;-1.688;2022-10-22T15:10:23;6.25;;;2.22;;
28170;SDS011;15458;53.346;-1.688;2022-10-22T15:12:50;6.32;;;1.40;;
28170;SDS011;15458;53.346;-1.688;2022-10-22T15:15:16;4.63;;;1.20;;
28170;SDS011;15458;53.346;-1.688;2022-10-22T15:17:43;3.97;;;1.10;;
28170;SDS011;15458;53.346;-1.688;2022-10-22T15:20:08;6.28;;;1.23;;
28170;SDS011;15458;53.346;-1.688;2022-10-22T15:22:34;5.90;;;0.90;;
28170;SDS011;15458;53.346;-1.688;2022-10-22T15:25:01;5.05;;;1.00;;
28170;SDS011;15458;53.346;-1.688;2022-10-22T15:27:32;11.40;;;1.50;;
28170;SDS011;15458;53.346;-1.688;2022-10-22T15:29:58;5.78;;;1.60;;
28170;SDS011;15458;53.346;-1.688;2022-10-22T15:32:24;4.50;;;1.15;;
28170;SDS011;15458;53.346;-1.688;2022-10-22T15:34:53;4.78;;;0.88;;
28170;SDS011;15458;53.346;-1.688;2022-10-22T15:37:19;8.40;;;1.75;;
28170;SDS011;15458;53.346;-1.688;2022-10-22T15:39:46;2.78;;;0.85;;
28170;SDS011;15458;53.346;-1.688;2022-10-22T15:42:12;7.32;;;1.27;;
28170;SDS011;15458;53.346;-1.688;2022-10-22T15:44:38;12.10;;;1.13;;
28170;SDS011;15458;53.346;-1.688;2022-10-22T15:47:04;7.97;;;1.30;;
28170;SDS011;15458;53.346;-1.688;2022-10-22T15:49:35;5.75;;;1.60;;
28170;SDS011;15458;53.346;-1.688;2022-10-22T15:52:04;5.68;;;1.33;;
28170;SDS011;15458;53.346;-1.688;2022-10-22T15:56:59;10.38;;;1.42;;
28170;SDS011;15458;53.346;-1.688;2022-10-22T15:59:27;5.28;;;1.40;;
28170;SDS011;15458;53.346;-1.688;2022-10-22T16:01:53;7.65;;;1.80;;
28170;SDS011;15458;53.346;-1.688;2022-10-22T16:04:19;8.73;;;1.30;;
28170;SDS011;15458;53.346;-1.688;2022-10-22T16:06:50;11.38;;;1.60;;
28170;SDS011;15458;53.346;-1.688;2022-10-22T16:09:18;5.32;;;1.30;;
28170;SDS011;15458;53.346;-1.688;2022-10-22T16:11:45;12.18;;;1.30;;
28170;SDS011;15458;53.346;-1.688;2022-10-22T16:14:12;10.55;;;1.80;;
28170;SDS011;15458;53.346;-1.688;2022-10-22T16:16:41;6.80;;;1.40;;
28170;SDS011;15458;53.346;-1.688;2022-10-22T16:19:13;7.90;;;2.05;;
28170;SDS011;15458;53.346;-1.688;2022-10-22T16:21:40;8.90;;;1.85;;
28170;SDS011;15458;53.346;-1.688;2022-10-22T16:24:09;5.80;;;1.67;;
28170;SDS011;15458;53.346;-1.688;2022-10-22T16:26:36;10.07;;;2.15;;
28170;SDS011;15458;53.346;-1.688;2022-10-22T16:29:10;10.07;;;2.25;;
28170;SDS011;15458;53.346;-1.688;2022-10-22T16:31:39;12.23;;;2.70;;
28170;SDS011;15458;53.346;-1.688;2022-10-22T16:34:09;12.38;;;3.35;;
28170;SDS011;15458;53.346;-1.688;2022-10-22T16:36:36;16.08;;;3.25;;
28170;SDS011;15458;53.346;-1.688;2022-10-22T16:39:05;12.65;;;3.10;;
28170;SDS011;15458;53.346;-1.688;2022-10-22T16:41:35;10.38;;;1.73;;
28170;SDS011;15458;53.346;-1.688;2022-10-22T16:44:03;14.57;;;2.97;;
28170;SDS011;15458;53.346;-1.688;2022-10-22T16:52:30;9.55;;;1.48;;
28170;SDS011;15458;53.346;-1.688;2022-10-22T16:55:02;9.20;;;1.60;;
28170;SDS011;15458;53.346;-1.688;2022-10-22T16:57:32;8.32;;;1.70;;
28170;SDS011;15458;53.346;-1.688;2022-10-22T16:59:58;10.88;;;1.92;;
28170;SDS011;15458;53.346;-1.688;2022-10-22T17:02:30;17.13;;;2.85;;
28170;SDS011;15458;53.346;-1.688;2022-10-22T17:04:56;11.10;;;1.92;;
28170;SDS011;15458;53.346;-1.688;2022-10-22T17:07:22;15.15;;;3.97;;
28170;SDS011;15458;53.346;-1.688;2022-10-22T17:09:50;12.15;;;3.55;;